Welcome to Northern Hawkes Bay. New Zealand.
PWS Header
      nz Flag



Hit Counter


W3C Valid W3C Valid logo


    Wairoa

Select any of the Stations below to visit their websites.










Historic Data from Weather Underground
Select the location of interest below. Wairoa is the default. Please have patience, this Data is slow to load in.
Northern Hawkes Bay Historical Data
Daily Summary for January 9, 2017 Units:  Metric    English   Both
« Previous Day
Next Day »
Daily Weekly Monthly Yearly Custom
  High: Low: Average:
Temperature: 26.0 °C 13.5 °C 20 °C
Dew Point: 16.6 °C 8.0 °C 12.1 °C
Humidity: 83% 38% 61%
Wind Speed: 20.9km/h 0.0km/h 6km/h
Wind Gust: 31.7km/h - -
Wind- - SW
Pressure: 1009.7 hPa 1004.6 hPa -
Precipitation: 0.0 mm    
Historical Graphs
 
 
Tabular Data for January 9, 2017
Time Temperature Dew Point Pressure Wind Wind Speed Wind Gust Humidity Rainfall Rate (Hourly) solar
00:02 15.8 °C 9.4 °C 1005.6 hPa WNW 3.5 km/h 7.2 km/h 66% 0.0 mm 0 W/m2
00:07 15.6 °C 9.3 °C 1005.6 hPa NW 6.1 km/h 11.1 km/h 66% 0.0 mm 0 W/m2
00:12 16.0 °C 9.2 °C 1005.3 hPa NW 6.1 km/h 13.4 km/h 64% 0.0 mm 0 W/m2
00:17 16.2 °C 9.2 °C 1005.3 hPa NW 5.0 km/h 13.4 km/h 63% 0.0 mm 0 W/m2
00:22 16.2 °C 9.2 °C 1005.6 hPa NNW 5.0 km/h 12.2 km/h 63% 0.0 mm 0 W/m2
00:27 16.2 °C 9.2 °C 1005.3 hPa North 5.0 km/h 9.7 km/h 63% 0.0 mm 0 W/m2
00:32 16.2 °C 9.2 °C 1005.3 hPa NNW 5.0 km/h 9.7 km/h 63% 0.0 mm 0 W/m2
00:37 16.2 °C 9.2 °C 1005.6 hPa NNW 9.7 km/h 13.4 km/h 63% 0.0 mm 0 W/m2
00:42 16.2 °C 9.2 °C 1005.3 hPa NNW 6.1 km/h 13.4 km/h 63% 0.0 mm 0 W/m2
00:47 16.1 °C 9.1 °C 1005.6 hPa NNW 5.0 km/h 13.4 km/h 63% 0.0 mm 0 W/m2
00:52 16.0 °C 8.9 °C 1005.3 hPa NNW 5.0 km/h 11.1 km/h 63% 0.0 mm 0 W/m2
00:57 15.9 °C 9.1 °C 1005.3 hPa North 5.0 km/h 7.2 km/h 64% 0.0 mm 0 W/m2
01:02 15.8 °C 9.0 °C 1005.0 hPa North 6.1 km/h 9.7 km/h 64% 0.0 mm 0 W/m2
01:07 15.7 °C 8.9 °C 1005.3 hPa North 6.1 km/h 9.7 km/h 64% 0.0 mm 0 W/m2
01:12 15.6 °C 9.1 °C 1005.3 hPa North 5.0 km/h 8.7 km/h 65% 0.0 mm 0 W/m2
01:17 15.4 °C 8.8 °C 1005.3 hPa NNW 3.5 km/h 8.7 km/h 65% 0.0 mm 0 W/m2
01:22 15.3 °C 9.0 °C 1005.3 hPa NNW 6.1 km/h 9.7 km/h 66% 0.0 mm 0 W/m2
01:27 15.3 °C 9.0 °C 1005.0 hPa North 5.0 km/h 11.1 km/h 66% 0.0 mm 0 W/m2
01:32 15.5 °C 8.9 °C 1005.3 hPa North 6.1 km/h 13.4 km/h 65% 0.0 mm 0 W/m2
01:37 15.7 °C 8.9 °C 1005.0 hPa North 9.7 km/h 15.8 km/h 64% 0.0 mm 0 W/m2
01:42 15.9 °C 8.9 °C 1005.3 hPa North 6.1 km/h 15.8 km/h 63% 0.0 mm 0 W/m2
01:47 15.8 °C 8.8 °C 1005.3 hPa North 6.1 km/h 15.8 km/h 63% 0.0 mm 0 W/m2
01:52 15.7 °C 8.9 °C 1005.3 hPa North 5.0 km/h 9.7 km/h 64% 0.0 mm 0 W/m2
01:57 15.5 °C 8.7 °C 1005.3 hPa North 5.0 km/h 9.7 km/h 64% 0.0 mm 0 W/m2
02:02 15.3 °C 8.8 °C 1005.3 hPa NNW 5.0 km/h 9.7 km/h 65% 0.0 mm 0 W/m2
02:07 15.0 °C 8.7 °C 1005.6 hPa NNW 3.5 km/h 9.7 km/h 66% 0.0 mm 0 W/m2
02:12 14.7 °C 8.8 °C 1005.6 hPa NNW 2.6 km/h 8.7 km/h 68% 0.0 mm 0 W/m2
02:22 14.3 °C 8.9 °C 1005.3 hPa Calm   5.0 km/h 70% 0.0 mm 0 W/m2
02:28 14.0 °C 8.6 °C 1005.3 hPa North 3.5 km/h 5.0 km/h 70% 0.0 mm 0 W/m2
02:41 13.9 °C 9.2 °C 1005.3 hPa Calm   3.5 km/h 73% 0.0 mm 0 W/m2
03:31 15.3 °C 8.3 °C 1005.3 hPa NW 3.5 km/h 9.7 km/h 63% 0.0 mm 0 W/m2
03:37 15.1 °C 8.3 °C 1005.0 hPa NW 6.1 km/h 8.7 km/h 64% 0.0 mm 0 W/m2
03:42 14.8 °C 8.5 °C 1004.6 hPa NW 6.1 km/h 8.7 km/h 66% 0.0 mm 0 W/m2
03:47 14.7 °C 8.4 °C 1004.6 hPa NW 3.5 km/h 8.7 km/h 66% 0.0 mm 0 W/m2
03:52 14.8 °C 8.5 °C 1004.6 hPa NNW 6.1 km/h 11.1 km/h 66% 0.0 mm 0 W/m2
03:57 15.3 °C 8.3 °C 1004.6 hPa NNW 5.0 km/h 11.1 km/h 63% 0.0 mm 0 W/m2
04:02 15.4 °C 8.4 °C 1004.6 hPa NNW 3.5 km/h 11.1 km/h 63% 0.0 mm 0 W/m2
04:07 15.4 °C 8.4 °C 1004.6 hPa NNW 1.1 km/h 11.1 km/h 63% 0.0 mm 0 W/m2
04:12 15.0 °C 8.0 °C 1004.6 hPa NNW 5.0 km/h 8.7 km/h 63% 0.0 mm 0 W/m2
04:17 15.0 °C 8.0 °C 1004.6 hPa North 3.5 km/h 8.7 km/h 63% 0.0 mm 0 W/m2
04:22 15.0 °C 8.0 °C 1004.6 hPa NNE 3.5 km/h 8.7 km/h 63% 0.0 mm 0 W/m2
04:27 15.0 °C 8.0 °C 1004.6 hPa NE 6.1 km/h 8.7 km/h 63% 0.0 mm 0 W/m2
04:32 15.3 °C 8.1 °C 1005.0 hPa NE 2.6 km/h 8.7 km/h 62% 0.0 mm 0 W/m2
04:37 15.3 °C 8.1 °C 1005.0 hPa North 3.5 km/h 8.7 km/h 62% 0.0 mm 0 W/m2
04:42 14.8 °C 8.1 °C 1005.0 hPa NW 5.0 km/h 8.7 km/h 64% 0.0 mm 0 W/m2
04:47 14.6 °C 8.1 °C 1004.6 hPa WNW 6.1 km/h 8.7 km/h 65% 0.0 mm 0 W/m2
04:52 14.5 °C 8.0 °C 1004.6 hPa WNW 6.1 km/h 15.8 km/h 65% 0.0 mm 0 W/m2
04:57 14.4 °C 8.1 °C 1005.0 hPa WNW 6.1 km/h 15.8 km/h 66% 0.0 mm 0 W/m2
05:02 15.0 °C 8.0 °C 1005.0 hPa West 6.1 km/h 15.8 km/h 63% 0.0 mm 0 W/m2
05:07 15.4 °C 8.2 °C 1005.0 hPa West 6.1 km/h 13.4 km/h 62% 0.0 mm 0 W/m2
05:12 15.4 °C 8.2 °C 1005.0 hPa WNW 3.5 km/h 11.1 km/h 62% 0.0 mm 0 W/m2
05:17 15.4 °C 8.2 °C 1005.0 hPa NW 2.6 km/h 8.7 km/h 62% 0.0 mm 0 W/m2
05:22 15.1 °C 8.1 °C 1005.3 hPa NW 5.0 km/h 7.2 km/h 63% 0.0 mm 0 W/m2
05:27 14.9 °C 8.4 °C 1005.3 hPa NW 1.1 km/h 7.2 km/h 65% 0.0 mm 0 W/m2
05:32 14.6 °C 8.3 °C 1005.3 hPa NNW 9.7 km/h 12.2 km/h 66% 0.0 mm 0 W/m2
05:37 14.5 °C 8.4 °C 1005.6 hPa NW 7.2 km/h 12.2 km/h 67% 0.0 mm 0 W/m2
05:42 14.3 °C 8.3 °C 1005.6 hPa NW 5.0 km/h 12.2 km/h 67% 0.0 mm 0 W/m2
05:47 14.0 °C 8.2 °C 1005.6 hPa NW 6.1 km/h 9.7 km/h 68% 0.0 mm 0 W/m2
05:52 13.9 °C 8.5 °C 1005.6 hPa NW 5.0 km/h 9.7 km/h 70% 0.0 mm 0 W/m2
05:57 13.8 °C 8.4 °C 1005.6 hPa NW 5.0 km/h 9.7 km/h 70% 0.0 mm 1 W/m2
06:02 13.8 °C 8.6 °C 1006.0 hPa NW 6.1 km/h 9.7 km/h 71% 0.0 mm 4 W/m2
06:07 13.7 °C 8.6 °C 1006.0 hPa NNW 5.0 km/h 9.7 km/h 71% 0.0 mm 7 W/m2
06:12 13.7 °C 8.6 °C 1006.0 hPa NNW 3.5 km/h 9.7 km/h 71% 0.0 mm 13 W/m2
06:17 13.5 °C 8.6 °C 1006.0 hPa NNW 5.0 km/h 8.7 km/h 72% 0.0 mm 18 W/m2
06:19 13.5 °C 8.8 °C 1006.0 hPa NNW 6.1 km/h 9.7 km/h 73% 0.0 mm 20 W/m2
06:24 13.6 °C 8.8 °C 1006.3 hPa NNW 7.2 km/h 15.8 km/h 73% 0.0 mm 26 W/m2
06:29 13.7 °C 8.7 °C 1006.3 hPa NNW 3.5 km/h 15.8 km/h 72% 0.0 mm 33 W/m2
06:34 13.8 °C 8.8 °C 1006.3 hPa NNW 2.6 km/h 9.7 km/h 72% 0.0 mm 38 W/m2
06:39 13.8 °C 9.1 °C 1006.7 hPa Calm   7.2 km/h 73% 0.0 mm 41 W/m2
06:44 14.0 °C 9.1 °C 1006.7 hPa NNE 2.6 km/h 7.2 km/h 72% 0.0 mm 46 W/m2
06:49 14.1 °C 8.9 °C 1006.3 hPa NE 1.1 km/h 8.7 km/h 71% 0.0 mm 56 W/m2
06:54 14.3 °C 8.9 °C 1006.7 hPa NNE 2.6 km/h 8.7 km/h 70% 0.0 mm 85 W/m2
06:59 15.0 °C 9.4 °C 1006.7 hPa NNE 5.0 km/h 7.2 km/h 69% 0.0 mm 132 W/m2
07:04 15.7 °C 9.6 °C 1006.7 hPa North 1.1 km/h 8.7 km/h 67% 0.0 mm 144 W/m2
07:09 16.6 °C 10.0 °C 1006.7 hPa NNW 6.1 km/h 8.7 km/h 65% 0.0 mm 109 W/m2
07:14 16.8 °C 9.5 °C 1006.7 hPa North 5.0 km/h 8.7 km/h 62% 0.0 mm 84 W/m2
07:19 16.6 °C 9.3 °C 1007.0 hPa North 5.0 km/h 9.7 km/h 62% 0.0 mm 94 W/m2
07:24 16.6 °C 9.6 °C 1006.7 hPa NNW 3.5 km/h 9.7 km/h 63% 0.0 mm 100 W/m2
07:29 16.8 °C 9.7 °C 1006.7 hPa NW 7.2 km/h 9.7 km/h 63% 0.0 mm 121 W/m2
07:34 17.0 °C 9.4 °C 1006.7 hPa NW 3.5 km/h 11.1 km/h 61% 0.0 mm 127 W/m2
07:39 17.2 °C 9.9 °C 1007.0 hPa NW 9.7 km/h 11.1 km/h 62% 0.0 mm 175 W/m2
07:45 18.3 °C 10.2 °C 1007.0 hPa WNW 7.2 km/h 12.2 km/h 59% 0.0 mm 157 W/m2
07:50 18.9 °C 10.2 °C 1007.0 hPa WNW 6.1 km/h 12.2 km/h 57% 0.0 mm 188 W/m2
07:55 19.3 °C 10.3 °C 1007.0 hPa WNW 6.1 km/h 12.2 km/h 56% 0.0 mm 247 W/m2
08:00 19.9 °C 10.3 °C 1007.0 hPa West 7.2 km/h 15.8 km/h 54% 0.0 mm 206 W/m2
08:05 20.1 °C 10.2 °C 1007.0 hPa WNW 7.2 km/h 15.8 km/h 53% 0.0 mm 269 W/m2
08:10 20.4 °C 9.7 °C 1007.3 hPa WNW 11.1 km/h 17.2 km/h 50% 0.0 mm 295 W/m2
08:15 20.5 °C 10.1 °C 1007.3 hPa NW 9.7 km/h 17.2 km/h 51% 0.0 mm 371 W/m2
08:20 20.9 °C 10.4 °C 1007.3 hPa NW 11.1 km/h 19.5 km/h 51% 0.0 mm 395 W/m2
08:26 21.2 °C 10.1 °C 1007.3 hPa NW 7.2 km/h 19.5 km/h 49% 0.0 mm 386 W/m2
08:31 21.7 °C 9.9 °C 1007.3 hPa WNW 6.1 km/h 18.3 km/h 47% 0.0 mm 389 W/m2
08:36 21.5 °C 9.7 °C 1007.3 hPa NW 8.7 km/h 18.3 km/h 47% 0.0 mm 351 W/m2
08:41 21.8 °C 9.7 °C 1007.3 hPa NW 9.7 km/h 15.8 km/h 46% 0.0 mm 417 W/m2
08:46 22.0 °C 9.2 °C 1007.7 hPa NW 3.5 km/h 15.8 km/h 44% 0.0 mm 417 W/m2
08:51 22.1 °C 9.6 °C 1007.7 hPa NNW 6.1 km/h 14.8 km/h 45% 0.0 mm 453 W/m2
08:56 22.4 °C 9.9 °C 1008.0 hPa North 3.5 km/h 13.4 km/h 45% 0.0 mm 465 W/m2
09:01 22.7 °C 10.5 °C 1008.0 hPa NNW 3.5 km/h 11.1 km/h 46% 0.0 mm 483 W/m2
09:06 23.1 °C 10.9 °C 1008.0 hPa NNW 5.0 km/h 11.1 km/h 46% 0.0 mm 504 W/m2
09:11 23.8 °C 11.2 °C 1007.7 hPa NE 6.1 km/h 9.7 km/h 45% 0.0 mm 544 W/m2
09:16 23.4 °C 10.8 °C 1007.7 hPa ENE 5.0 km/h 14.8 km/h 45% 0.0 mm 469 W/m2
09:21 23.8 °C 11.2 °C 1007.7 hPa ENE 3.5 km/h 14.8 km/h 45% 0.0 mm 506 W/m2
09:26 23.4 °C 10.8 °C 1007.3 hPa WNW 6.1 km/h 14.8 km/h 45% 0.0 mm 460 W/m2
09:31 23.0 °C 10.8 °C 1007.7 hPa West 3.5 km/h 14.8 km/h 46% 0.0 mm 545 W/m2
09:36 23.7 °C 11.4 °C 1007.7 hPa WSW 2.6 km/h 13.4 km/h 46% 0.0 mm 616 W/m2
09:42 24.4 °C 11.1 °C 1008.0 hPa West 1.1 km/h 8.7 km/h 43% 0.0 mm 625 W/m2
09:47 25.0 °C 10.8 °C 1008.0 hPa SW 5.0 km/h 9.7 km/h 41% 0.0 mm 624 W/m2
09:52 24.8 °C 10.7 °C 1007.7 hPa South 9.7 km/h 12.2 km/h 41% 0.0 mm 637 W/m2
09:57 24.3 °C 10.9 °C 1008.0 hPa South 8.7 km/h 12.2 km/h 43% 0.0 mm 688 W/m2
10:02 23.5 °C 10.9 °C 1007.7 hPa South 7.2 km/h 13.4 km/h 45% 0.0 mm 662 W/m2
10:07 23.7 °C 11.4 °C 1008.0 hPa SSE 5.0 km/h 13.4 km/h 46% 0.0 mm 607 W/m2
10:12 23.9 °C 11.9 °C 1007.7 hPa SE 6.1 km/h 12.2 km/h 47% 0.0 mm 683 W/m2
10:17 24.2 °C 11.6 °C 1007.7 hPa SE 6.1 km/h 11.1 km/h 45% 0.0 mm 728 W/m2
10:22 23.8 °C 11.5 °C 1007.7 hPa SSE 6.1 km/h 9.7 km/h 46% 0.0 mm 707 W/m2
10:27 24.0 °C 11.3 °C 1008.0 hPa South 2.6 km/h 9.7 km/h 45% 0.0 mm 727 W/m2
10:32 24.3 °C 11.3 °C 1008.0 hPa South 7.2 km/h 9.7 km/h 44% 0.0 mm 751 W/m2
10:37 24.0 °C 11.0 °C 1008.0 hPa SSW 11.1 km/h 17.2 km/h 44% 0.0 mm 650 W/m2
10:42 23.3 °C 10.7 °C 1008.0 hPa SSW 6.1 km/h 17.2 km/h 45% 0.0 mm 776 W/m2
10:47 23.3 °C 11.1 °C 1008.0 hPa SSW 8.7 km/h 17.2 km/h 46% 0.0 mm 889 W/m2
10:52 23.3 °C 11.1 °C 1008.0 hPa SSW 5.0 km/h 15.8 km/h 46% 0.0 mm 632 W/m2
10:57 23.4 °C 10.8 °C 1008.0 hPa South 9.7 km/h 17.2 km/h 45% 0.0 mm 611 W/m2
11:02 23.5 °C 10.9 °C 1008.0 hPa SSE 3.5 km/h 17.2 km/h 45% 0.0 mm 652 W/m2
11:07 24.0 °C 11.0 °C 1008.4 hPa SE 7.2 km/h 17.2 km/h 44% 0.0 mm 711 W/m2
11:12 24.1 °C 11.1 °C 1008.4 hPa SSE 7.2 km/h 12.2 km/h 44% 0.0 mm 773 W/m2
11:17 23.7 °C 11.1 °C 1008.4 hPa SSE 6.1 km/h 12.2 km/h 45% 0.0 mm 287 W/m2
11:22 22.7 °C 9.8 °C 1008.4 hPa SSE 6.1 km/h 14.8 km/h 44% 0.0 mm 337 W/m2
11:27 22.7 °C 10.2 °C 1008.4 hPa SSE 7.2 km/h 14.8 km/h 45% 0.0 mm 841 W/m2
11:32 23.2 °C 11.3 °C 1008.4 hPa South 8.7 km/h 15.8 km/h 47% 0.0 mm 711 W/m2
11:37 23.3 °C 11.7 °C 1008.0 hPa SW 9.7 km/h 15.8 km/h 48% 0.0 mm 863 W/m2
11:42 23.3 °C 11.7 °C 1008.0 hPa SW 15.8 km/h 23.3 km/h 48% 0.0 mm 830 W/m2
11:47 23.3 °C 11.7 °C 1008.0 hPa SSW 12.2 km/h 23.3 km/h 48% 0.0 mm 889 W/m2
11:52 23.0 °C 12.9 °C 1008.0 hPa SSW 14.8 km/h 23.3 km/h 53% 0.0 mm 813 W/m2
11:57 23.1 °C 13.0 °C 1008.0 hPa SW 17.2 km/h 23.3 km/h 53% 0.0 mm 757 W/m2
12:02 23.3 °C 13.2 °C 1008.0 hPa SW 11.1 km/h 24.5 km/h 53% 0.0 mm 756 W/m2
12:07 22.9 °C 12.2 °C 1008.4 hPa SW 18.3 km/h 27.0 km/h 51% 0.0 mm 547 W/m2
12:12 22.8 °C 12.4 °C 1008.0 hPa SW 15.8 km/h 30.6 km/h 52% 0.0 mm 763 W/m2
12:17 22.8 °C 12.4 °C 1008.0 hPa SW 18.3 km/h 30.6 km/h 52% 0.0 mm 846 W/m2
12:22 23.0 °C 12.9 °C 1008.0 hPa SW 18.3 km/h 29.4 km/h 53% 0.0 mm 603 W/m2
12:27 23.1 °C 13.0 °C 1008.0 hPa SW 14.8 km/h 28.0 km/h 53% 0.0 mm 446 W/m2
12:32 22.8 °C 12.7 °C 1008.4 hPa SSW 14.8 km/h 27.0 km/h 53% 0.0 mm 479 W/m2
12:37 22.7 °C 12.7 °C 1008.4 hPa SSW 13.4 km/h 27.0 km/h 53% 0.0 mm 614 W/m2
12:42 23.1 °C 13.0 °C 1008.4 hPa South 12.2 km/h 21.9 km/h 53% 0.0 mm 630 W/m2
12:47 23.1 °C 13.3 °C 1008.4 hPa SSW 9.7 km/h 24.5 km/h 54% 0.0 mm 492 W/m2
12:51 23.0 °C 13.8 °C 1008.4 hPa SSW 13.4 km/h 24.5 km/h 56% 0.0 mm 853 W/m2
12:57 23.2 °C 13.7 °C 1008.0 hPa SSW 11.1 km/h 21.9 km/h 55% 0.0 mm 853 W/m2
13:02 23.3 °C 14.1 °C 1008.0 hPa South 18.3 km/h 27.0 km/h 56% 0.0 mm 706 W/m2
13:07 23.5 °C 14.2 °C 1008.4 hPa South 15.8 km/h 31.7 km/h 56% 0.0 mm 872 W/m2
13:12 23.3 °C 14.1 °C 1008.0 hPa SSW 13.4 km/h 31.7 km/h 56% 0.0 mm 696 W/m2
13:17 23.3 °C 14.3 °C 1008.0 hPa South 13.4 km/h 24.5 km/h 57% 0.0 mm 346 W/m2
13:22 23.4 °C 11.8 °C 1008.4 hPa SSW 19.5 km/h 31.7 km/h 48% 0.0 mm 424 W/m2
13:27 23.3 °C 11.1 °C 1008.4 hPa SW 20.9 km/h 31.7 km/h 46% 0.0 mm 455 W/m2
13:32 23.4 °C 11.1 °C 1008.0 hPa SW 17.2 km/h 30.6 km/h 46% 0.0 mm 393 W/m2
13:37 23.7 °C 11.4 °C 1008.4 hPa WSW 18.3 km/h 30.6 km/h 46% 0.0 mm 711 W/m2
13:42 24.1 °C 11.8 °C 1008.4 hPa SW 12.2 km/h 30.6 km/h 46% 0.0 mm 869 W/m2
13:47 24.6 °C 12.2 °C 1008.4 hPa SSW 15.8 km/h 29.4 km/h 46% 0.0 mm 799 W/m2
13:52 24.1 °C 12.7 °C 1008.4 hPa SSW 13.4 km/h 27.0 km/h 49% 0.0 mm 896 W/m2
13:57 24.5 °C 13.4 °C 1008.0 hPa South 11.1 km/h 25.6 km/h 50% 0.0 mm 839 W/m2
14:02 23.9 °C 13.4 °C 1008.0 hPa South 18.3 km/h 21.9 km/h 52% 0.0 mm 688 W/m2
14:07 23.9 °C 12.6 °C 1008.0 hPa SSW 8.7 km/h 21.9 km/h 49% 0.0 mm 655 W/m2
14:12 24.7 °C 12.7 °C 1008.0 hPa South 8.7 km/h 21.9 km/h 47% 0.0 mm 964 W/m2
14:17 24.6 °C 13.2 °C 1008.4 hPa South 3.5 km/h 21.9 km/h 49% 0.0 mm 817 W/m2
14:22 25.0 °C 12.3 °C 1008.4 hPa SE 9.7 km/h 19.5 km/h 45% 0.0 mm 736 W/m2
14:26 24.5 °C 12.4 °C 1008.4 hPa SE 6.1 km/h 19.5 km/h 47% 0.0 mm 309 W/m2
14:32 24.2 °C 12.2 °C 1008.4 hPa SSE 2.6 km/h 15.8 km/h 47% 0.0 mm 844 W/m2
14:37 25.0 °C 11.9 °C 1008.4 hPa South 9.7 km/h 13.4 km/h 44% 0.0 mm 874 W/m2
14:42 24.7 °C 12.0 °C 1008.4 hPa South 8.7 km/h 14.8 km/h 45% 0.0 mm 893 W/m2
14:47 25.2 °C 12.4 °C 1008.4 hPa SSE 6.1 km/h 14.8 km/h 45% 0.0 mm 947 W/m2
14:53 25.0 °C 11.6 °C 1008.4 hPa ESE 6.1 km/h 14.8 km/h 43% 0.0 mm 923 W/m2
14:58 25.5 °C 12.0 °C 1008.4 hPa East 2.6 km/h 14.8 km/h 43% 0.0 mm 629 W/m2
15:03 25.8 °C 11.9 °C 1008.4 hPa SE 7.2 km/h 17.2 km/h 42% 0.0 mm 859 W/m2
15:08 26.0 °C 10.6 °C 1008.4 hPa SE 7.2 km/h 18.3 km/h 38% 0.0 mm 854 W/m2
15:13 25.8 °C 12.3 °C 1008.0 hPa SSE 11.1 km/h 18.3 km/h 43% 0.0 mm 823 W/m2
15:18 24.9 °C 13.8 °C 1008.4 hPa SE 7.2 km/h 23.3 km/h 50% 0.0 mm 813 W/m2
15:23 24.6 °C 13.2 °C 1008.4 hPa SE 7.2 km/h 23.3 km/h 49% 0.0 mm 229 W/m2
15:28 24.2 °C 12.5 °C 1008.4 hPa SE 8.7 km/h 17.2 km/h 48% 0.0 mm 554 W/m2
15:33 23.4 °C 15.2 °C 1008.4 hPa SSE 8.7 km/h 23.3 km/h 60% 0.0 mm 791 W/m2
15:38 23.5 °C 15.3 °C 1008.4 hPa SSE 7.2 km/h 23.3 km/h 60% 0.0 mm 749 W/m2
15:43 23.5 °C 15.1 °C 1008.4 hPa SSE 8.7 km/h 23.3 km/h 59% 0.0 mm 738 W/m2
15:48 23.0 °C 15.3 °C 1008.4 hPa SE 6.1 km/h 23.3 km/h 62% 0.0 mm 755 W/m2
15:53 23.1 °C 15.4 °C 1008.4 hPa SE 13.4 km/h 18.3 km/h 62% 0.0 mm 714 W/m2
15:57 22.2 °C 15.1 °C 1008.4 hPa SSE 9.7 km/h 23.3 km/h 64% 0.0 mm 706 W/m2
16:03 22.2 °C 15.3 °C 1008.4 hPa SSE 6.1 km/h 23.3 km/h 65% 0.0 mm 701 W/m2
16:07 22.2 °C 15.3 °C 1008.4 hPa SE 6.1 km/h 20.9 km/h 65% 0.0 mm 688 W/m2
16:12 23.0 °C 15.8 °C 1008.4 hPa SE 5.0 km/h 20.9 km/h 64% 0.0 mm 708 W/m2
16:18 23.2 °C 16.3 °C 1008.4 hPa SE 9.7 km/h 21.9 km/h 65% 0.0 mm 692 W/m2
16:23 23.0 °C 16.1 °C 1008.4 hPa SSE 7.2 km/h 21.9 km/h 65% 0.0 mm 659 W/m2
16:28 22.9 °C 15.7 °C 1008.7 hPa SSE 9.7 km/h 20.9 km/h 64% 0.0 mm 644 W/m2
16:33 22.7 °C 15.8 °C 1008.4 hPa SE 5.0 km/h 20.9 km/h 65% 0.0 mm 584 W/m2
16:37 22.8 °C 15.4 °C 1008.7 hPa SE 8.7 km/h 20.9 km/h 63% 0.0 mm 518 W/m2
16:43 22.2 °C 14.8 °C 1008.4 hPa SSE 6.1 km/h 18.3 km/h 63% 0.0 mm 263 W/m2
16:47 21.7 °C 15.1 °C 1008.7 hPa South 3.5 km/h 17.2 km/h 66% 0.0 mm 637 W/m2
16:52 22.9 °C 15.7 °C 1008.4 hPa South 7.2 km/h 17.2 km/h 64% 0.0 mm 641 W/m2
16:57 23.6 °C 16.2 °C 1008.7 hPa SE 6.1 km/h 13.4 km/h 63% 0.0 mm 611 W/m2
17:02 23.6 °C 15.1 °C 1008.4 hPa SE 9.7 km/h 14.8 km/h 59% 0.0 mm 552 W/m2
17:07 24.0 °C 15.2 °C 1008.4 hPa SE 5.0 km/h 14.8 km/h 58% 0.0 mm 523 W/m2
17:12 24.3 °C 15.0 °C 1008.7 hPa SSE 9.7 km/h 14.8 km/h 56% 0.0 mm 505 W/m2
17:18 23.7 °C 15.5 °C 1008.7 hPa SSE 7.2 km/h 14.8 km/h 60% 0.0 mm 492 W/m2
17:22 24.0 °C 15.8 °C 1008.4 hPa SSE 3.5 km/h 14.8 km/h 60% 0.0 mm 473 W/m2
17:28 23.9 °C 15.7 °C 1008.4 hPa SE 7.2 km/h 14.8 km/h 60% 0.0 mm 456 W/m2
17:33 23.6 °C 15.4 °C 1008.4 hPa SSE 6.1 km/h 14.8 km/h 60% 0.0 mm 440 W/m2
17:37 23.6 °C 15.1 °C 1008.4 hPa South 7.2 km/h 13.4 km/h 59% 0.0 mm 426 W/m2
17:43 23.5 °C 15.6 °C 1008.4 hPa South 5.0 km/h 14.8 km/h 61% 0.0 mm 409 W/m2
17:47 23.3 °C 15.6 °C 1008.4 hPa SSE 9.7 km/h 14.8 km/h 62% 0.0 mm 393 W/m2
17:52 23.1 °C 15.2 °C 1008.4 hPa SE 6.1 km/h 18.3 km/h 61% 0.0 mm 379 W/m2
17:57 23.1 °C 15.2 °C 1008.4 hPa SE 5.0 km/h 18.3 km/h 61% 0.0 mm 366 W/m2
18:02 23.5 °C 15.1 °C 1008.4 hPa SE 7.2 km/h 12.2 km/h 59% 0.0 mm 351 W/m2
18:18 23.5 °C 15.3 °C 1008.4 hPa SSE 5.0 km/h 12.2 km/h 60% 0.0 mm 325 W/m2
18:23 23.5 °C 14.8 °C 1008.4 hPa SSE 5.0 km/h 13.4 km/h 58% 0.0 mm 214 W/m2
18:29 22.3 °C 14.4 °C 1008.4 hPa SSE 5.0 km/h 13.4 km/h 61% 0.0 mm 102 W/m2
18:33 21.6 °C 14.8 °C 1008.4 hPa South 2.6 km/h 9.7 km/h 65% 0.0 mm 137 W/m2
18:38 22.0 °C 15.4 °C 1008.4 hPa South 5.0 km/h 9.7 km/h 66% 0.0 mm 141 W/m2
18:44 22.2 °C 16.1 °C 1008.7 hPa SSW 6.1 km/h 11.1 km/h 68% 0.0 mm 139 W/m2
18:48 21.4 °C 15.9 °C 1008.7 hPa SSW 6.1 km/h 12.2 km/h 71% 0.0 mm 76 W/m2
18:54 21.1 °C 15.9 °C 1008.4 hPa South 2.6 km/h 12.2 km/h 72% 0.0 mm 188 W/m2
18:58 21.9 °C 16.4 °C 1008.4 hPa SSW 2.6 km/h 8.7 km/h 71% 0.0 mm 230 W/m2
19:03 23.0 °C 16.3 °C 1008.4 hPa South 2.6 km/h 7.2 km/h 66% 0.0 mm 200 W/m2
19:08 23.8 °C 16.6 °C 1008.4 hPa Calm   7.2 km/h 64% 0.0 mm 187 W/m2
19:13 24.8 °C 15.7 °C 1008.4 hPa Calm   6.1 km/h 57% 0.0 mm 175 W/m2
19:18 25.1 °C 15.2 °C 1008.4 hPa Calm   3.5 km/h 54% 0.0 mm 166 W/m2
19:23 25.0 °C 15.3 °C 1008.4 hPa WSW 3.5 km/h 6.1 km/h 55% 0.0 mm 154 W/m2
19:28 24.4 °C 15.3 °C 1008.4 hPa Calm   6.1 km/h 57% 0.0 mm 52 W/m2
19:33 23.2 °C 15.0 °C 1008.4 hPa WSW 3.5 km/h 6.1 km/h 60% 0.0 mm 133 W/m2
19:38 23.0 °C 15.6 °C 1008.4 hPa WSW 1.1 km/h 6.1 km/h 63% 0.0 mm 112 W/m2
19:43 22.4 °C 15.0 °C 1008.7 hPa Calm   6.1 km/h 63% 0.0 mm 39 W/m2
19:48 21.7 °C 14.8 °C 1008.7 hPa Calm   5.0 km/h 65% 0.0 mm 67 W/m2
19:53 21.9 °C 15.1 °C 1008.7 hPa Calm   5.0 km/h 65% 0.0 mm 72 W/m2
19:58 21.9 °C 15.3 °C 1008.7 hPa Calm   3.5 km/h 66% 0.0 mm 34 W/m2
20:03 21.2 °C 14.8 °C 1008.7 hPa Calm   3.5 km/h 67% 0.0 mm 21 W/m2
20:09 20.8 °C 14.9 °C 1008.7 hPa Calm   3.5 km/h 69% 0.0 mm 18 W/m2
20:13 20.5 °C 14.8 °C 1008.7 hPa NW 1.1 km/h 2.6 km/h 70% 0.0 mm 15 W/m2
20:18 20.2 °C 15.0 °C 1008.7 hPa NW 1.1 km/h 2.6 km/h 72% 0.0 mm 14 W/m2
20:23 20.0 °C 15.0 °C 1008.7 hPa NW 1.1 km/h 3.5 km/h 73% 0.0 mm 10 W/m2
20:29 19.8 °C 15.3 °C 1009.0 hPa Calm   3.5 km/h 75% 0.0 mm 7 W/m2
20:33 19.6 °C 15.1 °C 1008.7 hPa NW 1.1 km/h 3.5 km/h 75% 0.0 mm 4 W/m2
20:38 19.5 °C 14.9 °C 1009.0 hPa Calm   3.5 km/h 75% 0.0 mm 1 W/m2
20:43 19.3 °C 14.8 °C 1008.7 hPa Calm   3.5 km/h 75% 0.0 mm 0 W/m2
20:48 19.1 °C 14.6 °C 1009.0 hPa Calm     75% 0.0 mm 0 W/m2
20:53 19.0 °C 14.5 °C 1009.0 hPa North 1.1 km/h 2.6 km/h 75% 0.0 mm 0 W/m2
20:58 19.1 °C 14.8 °C 1009.4 hPa NW 3.5 km/h 5.0 km/h 76% 0.0 mm 0 W/m2
21:03 18.9 °C 14.8 °C 1009.4 hPa NW 2.6 km/h 5.0 km/h 77% 0.0 mm 0 W/m2
21:08 18.8 °C 14.9 °C 1009.0 hPa NW 2.6 km/h 6.1 km/h 78% 0.0 mm 0 W/m2
21:13 18.7 °C 15.0 °C 1009.0 hPa NW 3.5 km/h 8.7 km/h 79% 0.0 mm 0 W/m2
21:18 18.6 °C 14.9 °C 1009.0 hPa NNW 1.1 km/h 8.7 km/h 79% 0.0 mm 0 W/m2
21:23 18.4 °C 14.9 °C 1009.0 hPa Calm   7.2 km/h 80% 0.0 mm 0 W/m2
21:28 18.4 °C 15.1 °C 1009.4 hPa NNE 2.6 km/h 5.0 km/h 81% 0.0 mm 0 W/m2
21:33 18.4 °C 15.1 °C 1009.0 hPa North 2.6 km/h 5.0 km/h 81% 0.0 mm 0 W/m2
21:38 18.5 °C 15.2 °C 1009.4 hPa NNW 2.6 km/h 6.1 km/h 81% 0.0 mm 0 W/m2
21:43 18.4 °C 15.1 °C 1009.4 hPa NNW 1.1 km/h 6.1 km/h 81% 0.0 mm 0 W/m2
21:48 18.2 °C 14.9 °C 1009.4 hPa WNW 3.5 km/h 7.2 km/h 81% 0.0 mm 0 W/m2
21:53 18.1 °C 15.0 °C 1009.4 hPa WNW 2.6 km/h 7.2 km/h 82% 0.0 mm 0 W/m2
21:58 18.0 °C 14.9 °C 1009.4 hPa Calm   6.1 km/h 82% 0.0 mm 0 W/m2
22:03 17.9 °C 14.8 °C 1009.7 hPa NW 1.1 km/h 5.0 km/h 82% 0.0 mm 0 W/m2
22:08 17.7 °C 14.6 °C 1009.4 hPa Calm   3.5 km/h 82% 0.0 mm 0 W/m2
22:13 17.6 °C 14.7 °C 1009.4 hPa North 3.5 km/h 5.0 km/h 83% 0.0 mm 0 W/m2
22:18 17.7 °C 14.8 °C 1009.4 hPa North 5.0 km/h 6.1 km/h 83% 0.0 mm 0 W/m2
22:23 17.8 °C 14.9 °C 1009.7 hPa North 2.6 km/h 6.1 km/h 83% 0.0 mm 0 W/m2
22:28 17.8 °C 14.9 °C 1009.7 hPa NNW 3.5 km/h 6.1 km/h 83% 0.0 mm 0 W/m2
22:33 17.8 °C 14.9 °C 1009.7 hPa NW 6.1 km/h 8.7 km/h 83% 0.0 mm 0 W/m2
22:38 17.8 °C 14.9 °C 1009.4 hPa NW 5.0 km/h 8.7 km/h 83% 0.0 mm 0 W/m2
22:43 17.9 °C 15.0 °C 1009.4 hPa NW 5.0 km/h 8.7 km/h 83% 0.0 mm 0 W/m2
22:48 18.1 °C 15.0 °C 1009.4 hPa NNW 6.1 km/h 8.7 km/h 82% 0.0 mm 0 W/m2
22:54 18.2 °C 14.9 °C 1009.4 hPa NNW 5.0 km/h 8.7 km/h 81% 0.0 mm 0 W/m2
23:00 18.2 °C 14.7 °C 1009.7 hPa NW 3.5 km/h 8.7 km/h 80% 0.0 mm 0 W/m2
23:05 18.3 °C 14.8 °C 1009.4 hPa NW 3.5 km/h 6.1 km/h 80% 0.0 mm 0 W/m2
23:10 18.2 °C 14.7 °C 1009.4 hPa NW 1.1 km/h 6.1 km/h 80% 0.0 mm 0 W/m2
23:12 18.1 °C 14.6 °C 1009.7 hPa NW 3.5 km/h 5.0 km/h 80% 0.0 mm 0 W/m2
23:17 18.1 °C 14.8 °C 1009.7 hPa NNW 2.6 km/h 6.1 km/h 81% 0.0 mm 0 W/m2
23:22 18.1 °C 14.6 °C 1009.7 hPa NW 2.6 km/h 6.1 km/h 80% 0.0 mm 0 W/m2
23:27 18.1 °C 14.6 °C 1009.7 hPa Calm   5.0 km/h 80% 0.0 mm 0 W/m2
23:32 18.0 °C 14.7 °C 1009.7 hPa Calm   2.6 km/h 81% 0.0 mm 0 W/m2
23:37 17.9 °C 14.6 °C 1009.4 hPa Calm   1.1 km/h 81% 0.0 mm 0 W/m2
23:42 17.8 °C 14.5 °C 1009.4 hPa Calm   1.1 km/h 81% 0.0 mm 0 W/m2
23:47 17.8 °C 14.5 °C 1009.4 hPa East 2.6 km/h 5.0 km/h 81% 0.0 mm 0 W/m2
23:52 18.0 °C 14.1 °C 1009.4 hPa ENE 2.6 km/h 5.0 km/h 78% 0.0 mm 0 W/m2
23:57 18.1 °C 13.6 °C 1009.4 hPa NNE 5.0 km/h 8.7 km/h 75% 0.0 mm 0 W/m2
Northern Hawkes Bay. New Zealand Historic Data
Compliments of Weather Underground - 2.25 mb